Potomac, IL (61865)

3:13 AM CST on December 22, 2014 (GMT -0600)
K9ADL | Change Station
CLOSE
Current Station
Personal Weather Station
Location: Oakwood, IL
Elevation: 725 ft
Nearby Weather Stations

Elev 725 ft 40.17 °N, 87.77 °W | Updated 5 seconds ago

Overcast
Overcast
32.2 °F
Feels Like 32 °F
N
0.0
Wind Variable Wind from SE
Gusts 0.0 mph

Today
High -- | Low -- °F
--% Chance of Precip.
Yesterday
High -- | Low -- °F
Precip. -- in
7:10 AM 4:28 PM
New Moon, 0% visible
Pressure 29.95 in
Visibility 7.0 miles
Clouds Mostly Cloudy 7500 ft
Overcast 9500 ft
Windchill 32 °F
Dew Point 32 °F
Humidity 98%
Rainfall 0.00 in
Snow Depth Not available.
UV 0 out of 12
Pollen .10 out of 12
Air Quality Not available.
Flu Activity Not available.
METAR KDNV 220855Z AUTO 11005KT 7SM BKN075 OVC095 M01/M02 A2995 RMK AO2 T10081023

More Conditions Fewer Conditions

Pressure 29.95 in
Visibility 7.0 miles
Clouds Mostly Cloudy 7500 ft
Overcast 9500 ft
Windchill 32 °F
Dew Point 32 °F
Humidity 98%
Rainfall 0.00 in
Snow Depth Not available.
UV 0 out of 12
Pollen .10 out of 12
Air Quality Not available.
Flu Activity Not available.
METAR KDNV 220855Z AUTO 11005KT 7SM BKN075 OVC095 M01/M02 A2995 RMK AO2 T10081023

More Conditions Fewer Conditions

10-Day Weather Forecast

Almanac

Astronomy

Dec. 22, 2014 Rise Set
Actual Time
Civil Twilight
Nautical Twilight
Astronomical Twilight
Moon
Length of Visible Light
Length of Day
Tomorrow will be .
, % of the Moon is Illuminated

Today's Extremes

State Highs State Lows

Community

WunderPhotos

Upload Photos

1,779,580 photos uploaded!

WunderBlogs® & News

Nearby

Air Quality

  Air Quality AQ Index Pollutant
Not available.

Snow Depth

Station Depth Elevation

Earthquake Activity

City Distance Mag. Time & Date
Minimum magnitude displayed is 2.5.

Coastal Water Temperatures

Place Temperature

Nearby Weather Stations